Time;durP1;ratioP1;P1;durP2;ratioP2;P2;SDS_P1;SDS_P2;PMS_P1;PMS_P2;Temp;Humidity;BMP_temperature;BMP_pressure;BME280_temperature;BME280_humidity;BME280_pressure;Samples;Min_cycle;Max_cycle;Signal;HPM_P1;HPM_P2
2023/03/18 00:01:09;;;;;;;5.47;4.60;;;7.80;99.90;;;8.62;91.40;97476.81;5233394;28;20208;-63
2023/03/18 00:03:43;;;;;;;4.50;4.10;;;7.70;99.90;;;8.59;91.42;97479.19;5241021;28;20582;-64
2023/03/18 00:06:18;;;;;;;4.33;3.93;;;7.70;99.90;;;8.57;90.96;97479.97;5233921;28;20209;-65
2023/03/18 00:08:51;;;;;;;4.27;3.97;;;7.60;99.90;;;8.49;91.19;97482.84;5242252;28;20210;-64
2023/03/18 00:11:26;;;;;;;4.40;4.10;;;7.50;99.90;;;8.43;91.13;97480.81;5239510;28;20232;-65
2023/03/18 00:13:59;;;;;;;6.10;3.93;;;7.50;99.90;;;8.34;91.38;97482.78;5238308;28;20747;-64
2023/03/18 00:16:33;;;;;;;4.10;3.80;;;7.50;99.90;;;8.29;91.80;97486.72;5241340;28;20209;-65
2023/03/18 00:19:07;;;;;;;6.57;4.60;;;7.40;99.90;;;8.26;91.69;97489.09;5232021;28;20243;-65
2023/03/18 00:21:40;;;;;;;4.60;4.30;;;7.40;99.90;;;8.27;91.43;97496.84;5244077;28;20201;-65
2023/03/18 00:24:14;;;;;;;5.60;4.10;;;7.30;99.90;;;8.24;91.39;97488.13;5243190;28;20218;-65
2023/03/18 00:26:47;;;;;;;5.00;4.50;;;7.30;99.90;;;8.21;92.03;97493.03;5244654;28;20664;-65
2023/03/18 00:29:20;;;;;;;4.83;4.30;;;7.30;99.90;;;8.15;92.05;97492.66;5246738;28;20208;-62
2023/03/18 00:31:55;;;;;;;5.87;4.67;;;7.20;99.90;;;8.13;92.78;97503.63;5243807;28;20204;-64
2023/03/18 00:34:28;;;;;;;6.00;4.70;;;7.20;99.90;;;8.01;91.85;97492.72;5242579;28;20319;-64
2023/03/18 00:37:02;;;;;;;4.77;4.00;;;7.10;99.90;;;7.91;92.28;97500.56;5236932;28;20227;-65
2023/03/18 00:39:36;;;;;;;5.50;5.10;;;7.00;99.90;;;7.87;92.61;97504.59;5242826;28;20555;-65
2023/03/18 00:42:11;;;;;;;5.60;5.03;;;7.00;99.90;;;7.90;92.54;97503.91;5234649;28;20724;-65
2023/03/18 00:44:44;;;;;;;5.00;4.60;;;7.00;99.90;;;7.94;93.05;97500.75;5244343;28;20299;-65
2023/03/18 00:47:19;;;;;;;5.10;4.33;;;7.10;99.90;;;7.97;93.55;97500.94;5243840;28;20200;-65
2023/03/18 00:49:52;;;;;;;5.03;4.53;;;7.00;99.90;;;7.97;93.39;97500.94;5246099;28;20204;-65
2023/03/18 00:52:26;;;;;;;4.43;4.10;;;7.00;99.90;;;7.88;93.75;97496.16;5243440;28;20242;-64
2023/03/18 00:54:59;;;;;;;4.60;3.70;;;7.00;99.90;;;7.91;93.75;97508.19;5245324;28;20362;-65
2023/03/18 00:57:33;;;;;;;4.27;3.57;;;6.90;99.90;;;7.82;93.76;97510.19;5231243;28;20209;-64
2023/03/18 01:00:08;;;;;;;5.03;4.30;;;6.80;99.90;;;7.67;94.39;97511.00;5240940;28;20232;-64
2023/03/18 01:02:43;;;;;;;4.30;3.90;;;6.70;99.90;;;7.59;94.73;97512.16;5236653;28;20204;-64
2023/03/18 01:05:17;;;;;;;5.10;4.17;;;6.70;99.90;;;7.59;94.85;97511.31;5241487;28;20196;-65
2023/03/18 01:07:50;;;;;;;4.70;4.40;;;6.70;99.90;;;7.56;94.92;97511.97;5237521;28;20217;-65
2023/03/18 01:10:23;;;;;;;4.27;3.83;;;6.60;99.90;;;7.56;94.69;97517.06;5243087;28;20204;-65
2023/03/18 01:12:57;;;;;;;4.93;4.43;;;6.70;99.90;;;7.58;95.27;97520.59;5244979;28;20288;-64
2023/03/18 01:15:30;;;;;;;4.93;4.53;;;6.70;99.90;;;7.57;95.09;97512.84;5237688;28;20216;-64
2023/03/18 01:18:05;;;;;;;4.57;4.10;;;6.70;99.90;;;7.55;94.33;97515.28;5245750;28;20208;-64
2023/03/18 01:20:38;;;;;;;3.97;3.67;;;6.60;99.90;;;7.53;95.19;97511.78;5243529;28;20656;-64
2023/03/18 01:23:12;;;;;;;6.47;4.10;;;6.60;99.90;;;7.61;95.31;97510.63;5235834;28;20222;-64
2023/03/18 01:25:45;;;;;;;4.23;3.93;;;6.70;99.90;;;7.58;95.00;97510.44;5243691;28;20623;-64
2023/03/18 01:28:18;;;;;;;4.20;3.80;;;6.60;99.90;;;7.58;95.16;97504.44;5240066;28;20215;-64
2023/03/18 01:30:52;;;;;;;4.70;3.93;;;6.60;99.90;;;7.55;95.52;97519.50;5241130;28;20199;-63
2023/03/18 01:33:27;;;;;;;4.30;4.00;;;6.60;99.90;;;7.49;95.38;97508.94;5237926;28;20332;-64
2023/03/18 01:36:03;;;;;;;5.03;4.57;;;6.50;99.90;;;7.42;95.29;97512.78;5232349;28;20358;-64
2023/03/18 01:38:37;;;;;;;4.27;3.97;;;6.50;99.90;;;7.40;95.50;97505.03;5245049;28;20196;-65
2023/03/18 01:41:11;;;;;;;4.70;4.10;;;6.50;99.90;;;7.43;96.01;97522.16;5245044;28;20291;-63
2023/03/18 01:43:44;;;;;;;4.20;3.90;;;6.50;99.90;;;7.39;95.60;97515.13;5241463;28;20641;-63
2023/03/18 01:46:35;;;;;;;5.77;4.37;;;6.50;99.90;;;7.39;95.32;97512.59;5241356;28;20193;-64
2023/03/18 01:49:16;;;;;;;4.33;3.93;;;6.50;99.90;;;7.36;96.05;97522.56;5242672;28;20211;-63
2023/03/18 01:51:55;;;;;;;5.60;4.50;;;6.50;99.90;;;7.36;95.01;97517.47;5238548;28;20657;-65
2023/03/18 01:54:32;;;;;;;5.20;4.73;;;6.40;99.90;;;7.31;95.76;97524.78;5240409;28;20378;-64
2023/03/18 01:57:06;;;;;;;6.40;5.30;;;6.40;99.90;;;7.21;94.75;97518.25;5243244;28;20215;-65
2023/03/18 01:59:42;;;;;;;6.53;5.87;;;6.30;99.90;;;7.23;94.79;97515.78;5241475;28;20205;-63
2023/03/18 02:02:17;;;;;;;7.67;6.53;;;6.30;99.90;;;7.20;95.36;97513.06;5236589;28;20200;-65
2023/03/18 02:04:56;;;;;;;8.53;7.73;;;6.30;99.90;;;7.14;95.27;97518.63;5238402;28;20685;-65
2023/03/18 02:07:33;;;;;;;8.37;7.27;;;6.30;99.90;;;7.10;95.78;97514.16;5241896;28;20676;-65
2023/03/18 02:10:10;;;;;;;8.03;7.20;;;6.30;99.90;;;7.15;95.16;97512.78;5242260;28;20194;-64
2023/03/18 02:12:49;;;;;;;7.17;6.43;;;6.30;99.90;;;7.14;96.00;97515.22;5232741;28;20208;-65
2023/03/18 02:15:26;;;;;;;7.80;5.83;;;6.30;99.90;;;7.18;95.68;97517.16;5237652;28;20779;-64
2023/03/18 02:18:04;;;;;;;6.07;5.57;;;6.30;99.90;;;7.13;95.25;97504.16;5237127;28;20227;-64
2023/03/18 02:21:00;;;;;;;5.60;5.10;;;6.30;99.90;;;7.14;95.76;97513.53;5236713;28;20188;-65
2023/03/18 02:23:43;;;;;;;5.87;5.40;;;6.30;99.90;;;7.17;95.30;97511.19;5241823;28;20221;-64
2023/03/18 02:26:24;;;;;;;4.53;4.07;;;6.30;99.90;;;7.17;95.16;97500.16;5242821;28;20284;-65
2023/03/18 02:29:02;;;;;;;5.03;4.53;;;6.30;99.90;;;7.14;95.15;97513.53;5243699;28;20639;-64
2023/03/18 02:31:38;;;;;;;5.03;4.20;;;6.30;99.90;;;7.16;96.24;97519.63;5234654;28;20234;-63
2023/03/18 02:34:11;;;;;;;5.07;4.67;;;6.30;99.90;;;7.13;95.70;97516.88;5238458;28;20324;-64
2023/03/18 02:36:45;;;;;;;4.73;4.33;;;6.20;99.90;;;7.08;96.21;97514.81;5242425;28;20223;-65
2023/03/18 02:39:18;;;;;;;5.27;4.77;;;6.20;99.90;;;7.08;96.28;97530.94;5241187;28;20663;-63
2023/03/18 02:41:51;;;;;;;4.83;4.53;;;6.20;99.90;;;7.12;95.89;97522.72;5240193;28;20211;-67
2023/03/18 02:44:25;;;;;;;4.63;4.30;;;6.20;99.90;;;7.19;96.16;97519.81;5242166;28;20229;-63
2023/03/18 02:47:04;;;;;;;5.80;4.87;;;6.30;99.90;;;7.14;96.70;97520.28;5240860;28;20291;-64
2023/03/18 02:49:37;;;;;;;5.40;4.90;;;6.20;99.90;;;7.08;96.62;97520.78;5241875;28;20294;-65
2023/03/18 02:52:11;;;;;;;4.80;4.50;;;6.20;99.90;;;7.09;96.27;97525.06;5241738;28;20585;-65
2023/03/18 02:54:45;;;;;;;5.20;4.70;;;6.20;99.90;;;7.11;96.10;97513.34;5236948;28;20327;-64
2023/03/18 02:57:18;;;;;;;5.37;4.27;;;6.20;99.90;;;7.12;96.72;97524.38;5235062;28;20219;-64
2023/03/18 02:59:52;;;;;;;5.07;4.57;;;6.20;99.90;;;7.08;95.67;97519.91;5229525;28;20255;-64
2023/03/18 03:02:25;;;;;;;5.37;4.83;;;6.20;99.90;;;6.99;95.54;97522.72;5240401;28;20577;-64
2023/03/18 03:04:59;;;;;;;4.73;4.33;;;6.10;99.90;;;6.84;95.91;97524.25;5239059;28;20220;-65
2023/03/18 03:07:32;;;;;;;4.33;3.93;;;6.00;99.90;;;6.80;96.47;97522.28;5231614;28;20299;-65
2023/03/18 03:10:07;;;;;;;4.80;4.40;;;6.00;99.90;;;6.79;96.48;97521.41;5240769;28;20299;-63
2023/03/18 03:12:41;;;;;;;4.57;4.27;;;6.00;99.90;;;6.82;96.92;97521.63;5241474;28;20199;-65
2023/03/18 03:15:15;;;;;;;4.97;4.50;;;6.00;99.90;;;6.90;96.51;97524.69;5240376;28;20630;-64
2023/03/18 03:17:48;;;;;;;5.40;4.70;;;6.10;99.90;;;6.95;96.14;97530.91;5240769;28;20211;-65
2023/03/18 03:20:22;;;;;;;6.47;4.13;;;6.10;99.90;;;6.88;95.21;97528.75;5238549;28;20564;-65
2023/03/18 03:22:56;;;;;;;5.63;5.10;;;6.00;99.90;;;6.62;95.91;97527.91;5241246;28;20752;-65
2023/03/18 03:25:29;;;;;;;5.17;4.67;;;5.90;99.90;;;6.50;97.54;97527.09;5239816;28;20656;-64
2023/03/18 03:28:03;;;;;;;4.80;4.40;;;5.80;99.90;;;6.56;97.38;97535.13;5240288;28;20200;-65
2023/03/18 03:30:38;;;;;;;5.27;4.73;;;5.80;99.90;;;6.65;97.42;97532.31;5239741;28;20286;-62
2023/03/18 03:33:12;;;;;;;5.03;4.63;;;5.80;99.90;;;6.65;97.08;97543.34;5231763;28;20220;-65
2023/03/18 03:35:45;;;;;;;6.27;4.80;;;5.80;99.90;;;6.63;97.55;97544.91;5236369;28;20311;-65
2023/03/18 03:38:18;;;;;;;4.63;4.20;;;5.90;99.90;;;6.68;97.53;97548.63;5240977;28;20718;-65
2023/03/18 03:40:52;;;;;;;5.07;4.67;;;5.90;99.90;;;6.81;96.99;97545.28;5239901;28;20207;-65
2023/03/18 03:43:26;;;;;;;5.40;4.83;;;6.00;99.90;;;6.81;97.51;97544.38;5244325;28;20307;-65
2023/03/18 03:46:00;;;;;;;5.67;4.90;;;6.00;99.90;;;6.90;96.70;97547.53;5241844;28;20211;-63
2023/03/18 03:48:34;;;;;;;4.50;4.20;;;6.00;99.90;;;6.65;96.76;97552.63;5235859;28;20207;-65
2023/03/18 03:51:07;;;;;;;5.30;4.80;;;5.80;99.90;;;6.69;96.88;97544.44;5233732;28;20204;-65
2023/03/18 03:53:41;;;;;;;5.67;5.17;;;5.90;99.90;;;6.64;96.92;97551.75;5240614;28;20228;-65
2023/03/18 03:56:14;;;;;;;5.63;5.13;;;5.80;99.90;;;6.63;97.26;97560.13;5244352;28;20213;-64
2023/03/18 03:58:47;;;;;;;5.57;5.07;;;5.90;99.90;;;6.63;97.13;97559.25;5245665;28;20270;-64
2023/03/18 04:01:21;;;;;;;5.97;4.60;;;5.90;99.90;;;6.72;97.72;97563.31;5237294;28;20287;-64
2023/03/18 04:03:55;;;;;;;4.67;4.27;;;5.90;99.90;;;6.77;97.11;97564.47;5235805;28;20224;-64
2023/03/18 04:06:28;;;;;;;5.67;4.87;;;5.90;99.90;;;6.71;97.23;97563.19;5242296;28;20229;-65
2023/03/18 04:09:03;;;;;;;5.87;5.20;;;5.90;99.90;;;6.54;97.58;97560.41;5242992;28;20201;-65
2023/03/18 04:11:36;;;;;;;5.27;4.87;;;5.80;99.90;;;6.49;97.22;97566.81;5237195;28;20210;-65
2023/03/18 04:14:09;;;;;;;6.20;4.93;;;5.70;99.90;;;6.54;97.16;97564.59;5232380;28;20709;-65
2023/03/18 04:16:44;;;;;;;6.03;5.50;;;5.70;99.90;;;6.65;97.00;97566.22;5243410;28;20695;-65
2023/03/18 04:19:17;;;;;;;6.07;5.07;;;5.80;99.90;;;6.59;97.80;97565.81;5244173;28;20664;-64
2023/03/18 04:21:51;;;;;;;5.70;4.93;;;5.80;99.90;;;6.56;97.44;97568.13;5233339;28;20207;-65
2023/03/18 04:24:25;;;;;;;5.47;5.00;;;5.70;99.90;;;6.44;97.76;97572.34;5239940;28;20232;-64
2023/03/18 04:26:58;;;;;;;6.57;5.97;;;5.70;99.90;;;6.45;98.25;97572.47;5238841;28;20197;-64
2023/03/18 04:29:31;;;;;;;6.93;6.23;;;5.70;99.90;;;6.28;99.46;97576.41;5244439;28;20293;-65
2023/03/18 04:32:06;;;;;;;7.33;6.40;;;5.70;99.90;;;6.43;98.61;97568.06;5242827;28;20220;-63
2023/03/18 04:34:39;;;;;;;6.30;5.70;;;5.70;99.90;;;6.48;98.31;97574.34;5239199;28;20231;-64
2023/03/18 04:37:13;;;;;;;6.10;5.70;;;5.70;99.90;;;6.38;98.51;97572.84;5239067;28;20223;-65
2023/03/18 04:39:47;;;;;;;6.83;6.13;;;5.70;99.90;;;6.44;98.61;97575.81;5234512;28;20208;-64
2023/03/18 04:42:20;;;;;;;7.93;6.67;;;5.80;99.90;;;6.55;98.57;97573.97;5239351;28;20566;-65
2023/03/18 04:44:53;;;;;;;7.27;6.53;;;5.80;99.90;;;6.51;98.92;97583.03;5234904;28;20687;-65
2023/03/18 04:47:27;;;;;;;9.20;7.27;;;5.70;99.90;;;6.44;99.05;97572.34;5240523;28;20207;-65
2023/03/18 04:50:01;;;;;;;7.07;6.53;;;5.70;99.90;;;6.45;98.52;97571.59;5243444;28;20665;-64
2023/03/18 04:52:34;;;;;;;6.90;6.30;;;5.70;99.90;;;6.48;98.93;97575.22;5236238;28;20744;-65
2023/03/18 04:55:09;;;;;;;6.83;6.23;;;5.70;99.90;;;6.46;98.83;97575.88;5244719;28;20230;-64
2023/03/18 04:57:43;;;;;;;6.40;5.87;;;5.70;99.90;;;6.42;98.53;97584.97;5244187;28;20299;-65
2023/03/18 05:00:20;;;;;;;7.57;6.47;;;5.70;99.90;;;6.47;98.28;97583.63;5237135;28;20254;-63
2023/03/18 05:02:54;;;;;;;6.33;5.67;;;5.70;99.90;;;6.52;97.88;97586.47;5240619;28;20353;-65
2023/03/18 05:05:28;;;;;;;6.83;5.60;;;5.80;99.90;;;6.57;98.22;97580.03;5243220;28;20746;-64
2023/03/18 05:08:01;;;;;;;5.87;5.40;;;5.80;99.90;;;6.64;98.22;97586.41;5240968;28;20206;-65
2023/03/18 05:10:34;;;;;;;5.63;5.13;;;5.80;99.90;;;6.63;97.35;97577.91;5253233;28;20241;-63
2023/03/18 05:13:08;;;;;;;6.23;5.43;;;5.70;99.90;;;6.45;97.08;97581.75;5252360;28;20226;-65
2023/03/18 05:15:41;;;;;;;5.57;5.13;;;5.60;99.90;;;6.27;97.70;97574.66;5244399;28;20203;-65
2023/03/18 05:18:16;;;;;;;5.90;5.40;;;5.50;99.90;;;6.30;98.31;97574.84;5243660;28;20254;-64
2023/03/18 05:20:49;;;;;;;5.47;4.97;;;5.50;99.90;;;6.23;98.49;97580.28;5243388;28;20211;-64
2023/03/18 05:23:22;;;;;;;6.53;5.33;;;5.40;99.90;;;6.26;98.72;97577.94;5234530;28;20624;-64
2023/03/18 05:25:55;;;;;;;5.73;5.27;;;5.50;99.90;;;6.28;98.77;97575.53;5241048;28;20197;-64
2023/03/18 05:28:29;;;;;;;5.43;4.90;;;5.50;99.90;;;6.27;98.53;97584.81;5238158;28;20669;-63
2023/03/18 05:31:02;;;;;;;5.43;4.93;;;5.50;99.90;;;6.24;98.43;97584.59;5237748;28;20204;-64
2023/03/18 05:33:37;;;;;;;6.17;5.40;;;5.40;99.90;;;6.24;98.56;97584.59;5235774;28;20256;-64
2023/03/18 05:36:10;;;;;;;5.63;5.13;;;5.40;99.90;;;6.21;98.49;97586.91;5231159;28;20192;-64
2023/03/18 05:38:43;;;;;;;6.07;5.27;;;5.40;99.90;;;6.22;98.50;97596.28;5234741;28;20229;-65
2023/03/18 05:41:17;;;;;;;5.90;5.40;;;5.40;99.90;;;6.19;98.39;97590.13;5232437;28;20247;-65
2023/03/18 05:43:50;;;;;;;6.20;5.60;;;5.40;99.90;;;6.23;98.02;97595.50;5241254;28;20800;-64
2023/03/18 05:46:23;;;;;;;6.17;5.67;;;5.40;99.90;;;6.20;98.15;97590.22;5231150;28;20228;-64
2023/03/18 05:48:57;;;;;;;5.47;5.07;;;5.30;99.90;;;6.19;98.50;97593.53;5226692;28;20214;-64
2023/03/18 05:51:31;;;;;;;6.87;6.13;;;5.30;99.90;;;6.11;98.39;97594.66;5234837;28;20203;-65
2023/03/18 05:54:04;;;;;;;6.20;5.63;;;5.30;99.90;;;6.20;98.24;97596.94;5240195;28;20217;-65
2023/03/18 05:56:38;;;;;;;6.83;6.13;;;5.40;99.90;;;6.24;98.57;97599.81;5241230;28;20543;-64
2023/03/18 05:59:12;;;;;;;6.73;5.50;;;5.40;99.90;;;6.24;98.17;97604.88;5234551;28;20219;-65
2023/03/18 06:01:47;;;;;;;6.33;5.57;;;5.40;99.90;;;6.24;98.17;97599.81;5238140;28;20656;-65
2023/03/18 06:04:23;;;;;;;5.33;4.83;;;5.50;99.90;;;6.34;97.64;97600.44;5242981;28;20663;-65
2023/03/18 06:06:57;;;;;;;5.63;5.13;;;5.50;99.90;;;6.40;96.96;97598.31;5245488;28;20200;-65
2023/03/18 06:09:32;;;;;;;5.60;5.10;;;5.50;99.90;;;6.44;96.98;97595.19;5241036;28;20577;-65
2023/03/18 06:12:06;;;;;;;5.47;4.97;;;5.60;99.90;;;6.47;97.41;97590.38;5241451;28;20210;-64
2023/03/18 06:14:39;;;;;;;5.60;5.00;;;5.70;99.90;;;6.47;97.01;97597.97;5237898;28;20212;-65
2023/03/18 06:17:12;;;;;;;4.57;4.27;;;5.60;99.90;;;6.54;96.46;97605.22;5240367;28;20224;-64
2023/03/18 06:19:47;;;;;;;6.13;4.07;;;5.70;99.90;;;6.57;96.59;97610.50;5223239;28;20200;-62
2023/03/18 06:22:21;;;;;;;5.40;4.47;;;5.60;99.90;;;6.58;96.31;97609.75;5227177;28;20226;-63
2023/03/18 06:24:54;;;;;;;4.23;3.93;;;5.50;99.90;;;6.55;95.49;97604.44;5227511;28;20216;-63
2023/03/18 06:27:27;;;;;;;5.17;4.00;;;5.60;99.90;;;6.66;95.33;97611.13;5237220;28;20247;-63
2023/03/18 06:30:01;;;;;;;4.53;4.17;;;5.70;99.90;;;6.74;95.63;97612.53;5230755;28;20630;-65
2023/03/18 06:32:35;;;;;;;4.67;4.23;;;5.80;99.90;;;6.85;96.00;97607.31;5242439;28;20296;-65
2023/03/18 06:35:11;;;;;;;4.77;4.37;;;5.90;99.90;;;6.92;96.39;97609.47;5232220;28;20229;-64
2023/03/18 06:37:44;;;;;;;5.53;4.53;;;6.00;99.90;;;6.90;94.04;97611.91;5232306;28;20375;-64
2023/03/18 06:40:17;;;;;;;4.90;4.60;;;6.10;99.90;;;7.07;94.39;97615.59;5242135;28;20215;-65
2023/03/18 06:42:50;;;;;;;5.53;5.13;;;6.20;99.90;;;7.25;93.75;97615.03;5235217;28;20197;-62
2023/03/18 06:45:24;;;;;;;5.97;5.07;;;6.30;99.90;;;7.32;93.81;97612.97;5233845;28;20569;-64
2023/03/18 06:47:59;;;;;;;5.13;4.63;;;6.30;99.90;;;7.35;94.00;97612.31;5237619;28;20246;-63
2023/03/18 06:50:34;;;;;;;5.63;5.13;;;6.30;99.90;;;7.43;92.85;97621.31;5232042;28;20201;-64
2023/03/18 06:53:07;;;;;;;4.40;4.00;;;6.30;99.90;;;7.48;93.22;97617.41;5239460;28;20220;-65
2023/03/18 06:55:40;;;;;;;5.40;5.00;;;6.40;99.90;;;7.61;92.42;97627.59;5234650;28;20223;-64
2023/03/18 06:58:13;;;;;;;4.70;4.40;;;6.50;99.90;;;7.86;92.09;97613.91;5239443;28;20248;-64
2023/03/18 07:00:46;;;;;;;7.37;6.23;;;6.70;99.90;;;7.93;90.76;97620.28;5243217;28;20295;-64
2023/03/18 07:03:20;;;;;;;6.50;6.00;;;6.80;99.90;;;8.17;88.99;97621.78;5235659;28;20702;-65
2023/03/18 07:05:56;;;;;;;5.93;5.43;;;7.00;99.90;;;8.51;90.08;97621.38;5230531;28;20204;-65
2023/03/18 07:08:29;;;;;;;5.80;5.27;;;7.30;99.90;;;8.77;88.43;97612.75;5243401;28;20655;-65
2023/03/18 07:11:03;;;;;;;5.47;5.07;;;7.50;99.90;;;8.98;87.68;97623.31;5243929;28;20224;-65
2023/03/18 07:13:36;;;;;;;6.17;5.60;;;7.70;99.90;;;9.02;85.50;97618.50;5239851;28;20546;-65
2023/03/18 07:16:09;;;;;;;6.53;5.87;;;7.90;99.90;;;9.29;85.46;97618.34;5241969;28;20196;-64
2023/03/18 07:18:42;;;;;;;7.37;5.80;;;8.10;99.90;;;9.57;84.32;97625.06;5230920;28;20692;-64
2023/03/18 07:21:18;;;;;;;5.90;5.37;;;8.40;99.90;;;9.82;84.05;97625.63;5228726;28;20231;-65
2023/03/18 07:23:54;;;;;;;6.47;5.87;;;8.60;99.90;;;9.90;83.74;97619.28;5231517;28;20311;-63
2023/03/18 07:26:28;;;;;;;6.83;6.17;;;8.70;99.90;;;9.99;81.74;97625.72;5236363;28;20212;-63
2023/03/18 07:29:02;;;;;;;6.13;5.60;;;8.80;99.90;;;10.15;80.97;97620.63;5238507;28;20200;-65
2023/03/18 07:31:35;;;;;;;6.88;6.07;;;8.90;99.90;;;10.20;79.86;97624.31;5240622;28;20259;-63
2023/03/18 07:34:09;;;;;;;8.37;6.37;;;9.00;99.90;;;10.37;78.11;97628.69;5238326;28;20224;-64
2023/03/18 07:36:43;;;;;;;7.13;6.45;;;9.10;99.90;;;10.48;78.33;97631.84;5242851;28;20201;-64
2023/03/18 07:39:17;;;;;;;6.43;5.85;;;9.30;99.90;;;10.86;76.98;97634.66;5240568;28;20224;-65
2023/03/18 07:41:50;;;;;;;6.73;6.13;;;9.60;99.90;;;10.76;77.52;97631.63;5242941;28;20296;-65
2023/03/18 07:44:24;;;;;;;6.68;6.03;;;9.60;99.90;;;10.89;77.04;97640.81;5239050;28;20216;-65
2023/03/18 07:46:57;;;;;;;9.10;7.85;;;9.80;99.90;;;10.87;77.25;97636.41;5246721;28;20196;-64
2023/03/18 07:49:31;;;;;;;8.43;7.05;;;9.80;99.90;;;11.04;72.44;97633.03;5241654;28;20534;-64
2023/03/18 07:52:06;;;;;;;7.57;5.93;;;10.20;99.90;;;11.26;73.28;97623.09;5236871;28;20700;-65
2023/03/18 07:54:40;;;;;;;8.23;6.47;;;10.20;99.90;;;11.30;71.44;97633.50;5256523;28;20247;-64
2023/03/18 07:57:13;;;;;;;6.78;6.07;;;10.40;99.90;;;11.47;71.49;97627.53;5237756;28;20196;-64
2023/03/18 07:59:48;;;;;;;6.22;5.72;;;10.50;99.90;;;11.70;70.14;97632.13;5234163;28;20311;-65
2023/03/18 08:02:22;;;;;;;6.60;5.70;;;10.80;99.90;;;11.76;67.78;97628.97;5242879;28;20292;-65
2023/03/18 08:04:56;;;;;;;6.32;5.35;;;10.90;99.90;;;11.94;68.24;97631.56;5238422;28;20575;-63
2023/03/18 08:07:31;;;;;;;7.50;6.03;;;11.10;99.90;;;12.21;67.16;97637.13;5243202;28;20227;-65
2023/03/18 08:10:05;;;;;;;6.50;5.60;;;11.40;99.90;;;12.33;67.80;97626.56;5238428;28;20675;-63
2023/03/18 08:12:38;;;;;;;6.20;5.60;;;11.50;99.90;;;12.44;66.27;97625.38;5234242;28;20239;-63
2023/03/18 08:15:25;;;;;;;6.10;5.47;;;11.70;99.90;;;12.81;66.54;97627.03;5236082;28;20335;-65
2023/03/18 08:17:58;;;;;;;6.90;6.28;;;12.10;99.90;;;12.83;65.14;97625.41;5236226;28;21574;-65
2023/03/18 08:20:31;;;;;;;6.55;5.80;;;12.10;99.90;;;13.16;65.01;97630.25;5238164;28;20908;-65
2023/03/18 08:23:07;;;;;;;6.22;5.72;;;12.30;99.90;;;13.35;62.94;97625.13;5241166;28;20224;-64
2023/03/18 08:25:40;;;;;;;6.40;5.80;;;12.50;99.90;;;13.69;60.79;97629.13;5239485;28;20253;-61
2023/03/18 08:28:13;;;;;;;6.32;5.72;;;12.90;99.90;;;14.04;58.57;97629.66;5238011;28;20289;-64
2023/03/18 08:30:46;;;;;;;6.05;5.45;;;13.30;99.90;;;14.29;57.25;97629.81;5236195;28;20295;-63
2023/03/18 08:33:19;;;;;;;6.10;5.53;;;13.60;99.90;;;14.34;56.35;97632.56;5235381;28;20719;-63
2023/03/18 08:35:53;;;;;;;6.00;5.45;;;13.70;99.90;;;14.35;57.16;97624.88;5237549;28;20236;-64
2023/03/18 08:38:28;;;;;;;7.07;5.97;;;13.70;99.90;;;14.58;54.49;97632.63;5233087;28;20658;-63
2023/03/18 08:41:02;;;;;;;5.88;5.38;;;13.90;99.50;;;14.83;53.60;97639.56;5243416;28;20306;-65
2023/03/18 08:43:35;;;;;;;7.80;5.68;;;14.20;98.60;;;15.09;53.46;97628.53;5240290;28;20220;-61
2023/03/18 08:46:11;;;;;;;5.75;5.25;;;14.50;98.40;;;15.24;52.93;97629.88;5242785;28;20215;-64
2023/03/18 08:48:44;;;;;;;6.35;5.07;;;14.60;98.10;;;15.29;53.03;97631.78;5239743;28;20260;-63
2023/03/18 08:51:17;;;;;;;5.28;4.78;;;14.70;98.10;;;15.32;52.89;97626.75;5236531;28;20228;-64
2023/03/18 08:53:53;;;;;;;4.70;4.30;;;14.70;98.10;;;15.27;51.12;97625.72;5238628;28;20613;-63
2023/03/18 08:56:26;;;;;;;4.40;4.00;;;14.70;96.50;;;15.47;51.44;97628.09;5238154;28;22615;-64
2023/03/18 08:58:59;;;;;;;3.85;3.40;;;14.90;96.20;;;15.49;50.83;97621.31;5241302;28;20224;-62
2023/03/18 09:01:32;;;;;;;4.00;3.50;;;14.90;96.40;;;15.73;50.52;97624.72;5239198;28;20211;-63
2023/03/18 09:04:06;;;;;;;4.10;3.70;;;15.20;95.70;;;16.09;50.24;97628.44;5240895;28;20676;-64
2023/03/18 09:06:39;;;;;;;4.05;3.20;;;15.60;95.60;;;16.34;49.78;97624.91;5228948;28;20209;-63
2023/03/18 09:09:14;;;;;;;3.60;2.78;;;15.90;95.10;;;16.56;47.26;97622.16;5241307;28;20287;-64
2023/03/18 09:11:47;;;;;;;2.60;2.35;;;16.10;93.80;;;16.91;43.79;97613.72;5239300;28;20207;-64
2023/03/18 09:14:20;;;;;;;4.03;2.78;;;16.30;91.20;;;17.06;42.16;97599.53;5240125;28;20606;-64
2023/03/18 09:16:53;;;;;;;3.47;2.63;;;16.40;90.20;;;17.16;42.80;97603.22;5241391;28;20212;-65
2023/03/18 09:19:27;;;;;;;3.08;2.40;;;16.50;90.50;;;17.26;41.43;97601.78;5242697;28;20774;-64
2023/03/18 09:22:00;;;;;;;3.95;2.40;;;16.70;88.80;;;17.37;40.80;97597.78;5234893;28;20291;-62
2023/03/18 09:24:34;;;;;;;2.47;2.28;;;16.80;87.50;;;17.45;40.53;97609.16;5238843;28;20267;-65
2023/03/18 09:27:07;;;;;;;3.10;2.35;;;16.90;87.80;;;17.69;39.39;97601.16;5230047;28;20197;-65
2023/03/18 09:29:41;;;;;;;2.42;2.17;;;17.00;85.20;;;17.82;40.50;97594.59;5245982;28;20275;-64
2023/03/18 09:32:15;;;;;;;2.58;2.38;;;17.10;87.10;;;17.87;39.70;97595.59;5236419;28;20638;-65
2023/03/18 09:34:48;;;;;;;3.22;2.20;;;17.20;85.60;;;18.00;38.36;97600.22;5239006;28;20350;-65
2023/03/18 09:37:22;;;;;;;2.20;1.90;;;17.30;83.30;;;18.03;38.68;97594.25;5241894;28;20206;-64
2023/03/18 09:39:56;;;;;;;4.03;2.25;;;17.40;82.60;;;18.21;38.84;97586.03;5225242;28;20259;-63
2023/03/18 09:42:48;;;;;;;4.35;1.85;;;17.40;83.60;;;18.28;40.84;97592.22;5229777;28;20246;-65
2023/03/18 09:45:28;;;;;;;2.13;1.98;;;17.50;85.70;;;18.30;38.43;97583.66;5235357;28;20189;-64
2023/03/18 09:48:21;;;;;;;2.97;1.88;;;17.60;83.20;;;18.33;36.87;97588.91;5234401;28;20197;-64
2023/03/18 09:51:06;;;;;;;2.65;1.77;;;17.60;80.50;;;18.34;37.31;97590.66;5224918;28;20285;-64
2023/03/18 09:53:45;;;;;;;1.80;1.70;;;17.60;79.90;;;18.40;36.33;97590.78;5241316;28;20247;-63
2023/03/18 09:56:25;;;;;;;2.60;1.70;;;17.60;79.30;;;18.60;35.80;97583.47;5230506;28;20228;-63
2023/03/18 09:59:03;;;;;;;2.42;2.15;;;17.80;79.00;;;18.54;35.48;97572.06;5235633;28;20263;-63
2023/03/18 10:01:39;;;;;;;2.97;1.80;;;17.80;77.80;;;18.45;35.40;97571.03;5227800;28;20619;-63
2023/03/18 10:04:18;;;;;;;2.58;1.60;;;17.70;78.00;;;18.42;35.88;97581.31;5238771;28;20609;-63
2023/03/18 10:06:58;;;;;;;1.92;1.65;;;17.70;78.60;;;18.45;38.15;97576.22;5230577;28;20201;-62
2023/03/18 10:09:40;;;;;;;2.03;1.88;;;17.80;81.80;;;18.52;36.13;97577.25;5228865;28;20287;-60
2023/03/18 10:12:24;;;;;;;2.47;2.03;;;17.80;78.10;;;18.60;35.85;97577.38;5231541;28;20304;-62
2023/03/18 10:15:12;;;;;;;2.15;2.00;;;17.80;77.80;;;18.58;36.05;97576.50;5234992;28;20227;-63
2023/03/18 10:17:52;;;;;;;2.85;1.95;;;17.80;77.60;;;18.70;36.33;97579.31;5242983;28;20194;-63
2023/03/18 10:20:36;;;;;;;2.47;1.95;;;18.00;78.50;;;18.71;35.81;97581.06;5229168;28;20751;-62
2023/03/18 10:23:26;;;;;;;2.08;1.85;;;18.00;77.90;;;18.88;35.67;97587.50;5238446;28;20220;-63
2023/03/18 10:26:05;;;;;;;3.03;1.90;;;18.00;78.00;;;18.92;36.06;97583.25;5228258;28;20673;-62
2023/03/18 10:29:21;;;;;;;2.80;2.10;;;18.20;78.20;;;18.92;35.93;97570.31;5228079;28;20196;-62
2023/03/18 10:32:12;;;;;;;2.28;1.73;;;18.20;78.20;;;18.83;36.00;97562.38;5229826;28;20212;-63
2023/03/18 10:35:04;;;;;;;2.65;1.98;;;18.10;77.40;;;18.90;35.29;97567.69;5231681;28;20224;-63
2023/03/18 10:37:49;;;;;;;1.65;1.45;;;18.10;76.90;;;18.86;34.34;97559.84;5224471;28;20639;-62
2023/03/18 10:40:25;;;;;;;1.70;1.60;;;18.10;75.10;;;18.88;34.67;97565.91;5232084;28;20220;-63
2023/03/18 10:42:59;;;;;;;2.40;1.90;;;18.00;75.70;;;18.86;34.94;97560.72;5234462;28;20680;-62
2023/03/18 10:45:35;;;;;;;3.17;2.00;;;18.00;76.60;;;18.67;35.12;97555.97;5236362;28;20227;-62
2023/03/18 10:48:15;;;;;;;2.60;1.80;;;18.00;76.10;;;18.67;36.18;97550.78;5244254;28;20202;-61
2023/03/18 10:50:58;;;;;;;3.15;1.95;;;17.80;77.60;;;18.92;35.18;97548.72;5240160;28;20541;-61
2023/03/18 10:53:38;;;;;;;1.92;1.80;;;18.20;76.00;;;18.85;36.71;97546.00;5236176;28;20216;-61
2023/03/18 10:56:13;;;;;;;3.47;2.00;;;18.10;77.90;;;19.01;34.83;97548.91;5238502;28;20604;-61
2023/03/18 10:58:47;;;;;;;1.90;1.63;;;18.20;75.70;;;18.96;34.37;97551.38;5234127;28;20607;-60
2023/03/18 11:01:23;;;;;;;3.35;2.00;;;18.20;74.70;;;18.98;34.26;97541.06;5229230;28;20221;-61